Sigfox identifier Datetime Temperature Humidity SNR
00392B0B 2018-10-09 09:31:30 20.6 39 19.4
00392B0B 2018-10-09 08:24:08 20.5 41 19.6
00392B0B 2018-10-09 07:16:48 20.6 41 19.7
00392B0B 2018-10-09 06:09:29 20.6 40 20.3
00392B0B 2018-10-09 05:02:12 20.6 40 20.7
00392B0B 2018-10-09 01:40:06 20.6 39 21.1
00392B0B 2018-10-09 00:32:44 20.6 39 21.4
00392B0B 2018-10-08 23:25:22 20.6 39 21.4
00392B0B 2018-10-08 22:18:01 20.6 38 21.5
00392B0B 2018-10-08 21:10:43 20.6 38 21.7
00392B0B 2018-10-08 20:03:15 20.6 38 21.9
00392B0B 2018-10-08 17:48:32 20.6 37 22
00392B0B 2018-10-08 16:41:12 20.6 37 22.3
00392B0B 2018-10-08 15:33:48 20.5 37 22.3
00392B0B 2018-10-08 14:26:30 20.6 36 22.6
00392B0B 2018-10-08 11:04:29 20.6 32 23.1
00392B0B 2018-10-08 09:57:13 20.6 31 23.4
00392B0B 2018-10-08 08:49:51 20.4 30 23.6
00392B0B 2018-10-08 07:42:32 20.4 32 23.6
00392B0B 2018-10-08 06:35:14 20.4 33 23.8
00392B0B 2018-10-08 05:27:54 20.4 33 23.7
00392B0B 2018-10-08 04:20:33 20.4 33 24
00392B0B 2018-10-08 03:13:14 20.4 34 23.9
00392B0B 2018-10-08 02:05:52 20.4 35 23.6
00392B0B 2018-10-08 00:58:28 20.4 35 23.7
00392B0B 2018-10-07 23:51:07 20.4 36 23.8
00392B0B 2018-10-07 22:43:43 20.5 36 23.8
00392B0B 2018-10-07 21:36:20 20.6 37 23.8
00392B0B 2018-10-07 20:28:58 20.6 37 23.7
00392B0B 2018-10-07 19:21:36 20.6 38 23.9
00392B0B 2018-10-07 18:14:17 20.6 38 24
00392B0B 2018-10-07 17:06:57 20.6 38 24
00392B0B 2018-10-07 15:59:39 20.6 38 24
00392B0B 2018-10-07 14:52:18 20.6 38 23.9
00392B0B 2018-10-07 13:44:58 20.6 38 23.9
00392B0B 2018-10-07 12:37:39 20.6 38 23.7
00392B0B 2018-10-07 11:30:20 20.6 38 23.8
00392B0B 2018-10-07 10:23:00 20.6 38 23.7
00392B0B 2018-10-07 09:15:43 20.6 38 23.9
00392B0B 2018-10-07 08:08:25 20.6 38 23.9
00392B0B 2018-10-07 07:01:06 20.6 38 23.7
00392B0B 2018-10-07 05:53:50 20.6 38 23.4
00392B0B 2018-10-07 04:46:26 20.6 39 23.3
00392B0B 2018-10-07 03:39:07 20.6 39 23.3
00392B0B 2018-10-07 02:31:46 20.6 39 23.1
00392B0B 2018-10-07 01:24:24 20.7 39 23.2
00392B0B 2018-10-07 00:17:03 20.8 39 23
00392B0B 2018-10-06 23:09:39 20.8 40 23.2
00392B0B 2018-10-06 22:02:13 20.8 40 23.2
00392B0B 2018-10-06 20:54:51 20.8 39 23
00392B0B 2018-10-06 19:47:30 20.8 39 23
00392B0B 2018-10-06 18:40:08 20.8 39 22.8
00392B0B 2018-10-06 17:32:47 20.8 39 22.7
00392B0B 2018-10-06 16:25:24 20.8 40 22.8
00392B0B 2018-10-06 15:18:03 20.8 40 22.7
00392B0B 2018-10-06 14:10:43 20.9 40 22.6
00392B0B 2018-10-06 13:03:22 20.8 39 22.4
00392B0B 2018-10-06 11:56:03 20.8 39 22.6
00392B0B 2018-10-06 10:48:39 20.8 39 22.8
00392B0B 2018-10-06 09:41:19 20.9 39 22.7
00392B0B 2018-10-06 08:33:58 20.8 39 22.9
00392B0B 2018-10-06 07:26:38 20.8 39 23
00392B0B 2018-10-06 06:19:16 20.9 40 23
00392B0B 2018-10-06 05:11:56 21 40 22.8
00392B0B 2018-10-06 04:04:29 21 41 22.4
00392B0B 2018-10-06 02:57:04 21 41 21.9
00392B0B 2018-10-06 01:49:43 21 41 21.9
00392B0B 2018-10-06 00:42:17 21 42 21.6
00392B0B 2018-10-05 23:34:57 21.2 42 22.2
00392B0B 2018-10-05 22:27:38 21.2 43 22.4
00392B0B 2018-10-05 21:20:15 21.3 43 21.9
00392B0B 2018-10-05 20:12:51 21.4 44 21.2
00392B0B 2018-10-05 19:05:28 21.6 44 14.4
00392B0B 2018-10-05 17:58:03 21.9 44 13.3
00392B0B 2018-10-05 16:50:36 21.9 56 0